• Join FlightAware (Why Join?)
  • Login
  • US Flag 
02:53AM EDT


 

Airport Tracker/Info


-or-


 

Live Flight TrackerFlight Track Log ✈ SWA492 ✈ 19-Jun-2013 ✈ KMDW - KBOS

Flight Track Log - Related Links

Times and Time Zones

All times are in EDT time to prevent confusion due to time zone crossing. See the SWA492 flight status page for this flight to view local times or setup timezone preferences in your user account.

Time Position Orientation Groundspeed Altitude Reporting Facility
EDT Latitude Longitude Course Direction KTS MPH feet Rate Location/Type
08:43AM 41.8081 -87.6614 79° East 201 231 3,100  Level Chicago Center
08:44AM 41.8108 -87.5678 88° East 236 272 5,600 3,120 Climbing Chicago Center
08:45AM 41.8092 -87.4614 91° East 283 326 9,600 3,840 Climbing Chicago Center
08:46AM 41.7928 -87.3261 99° East 302 348 13,700 2,940 Climbing Chicago Center
08:47AM 41.7778 -87.1994 99° East 335 386 15,800 2,460 Climbing Chicago Center
08:48AM 41.7515 -86.7900 86° East  Level FlightAware Approximate
08:48AM 41.7606 -87.0556 99° East 380 437 18,900  Level Chicago Center
08:49AM 41.7747 -86.9092 83° East 396 456 21,600 2,460 Climbing Chicago Center
08:50AM 41.7906 -86.7575 82° East 408 470 24,100 2,220 Climbing Chicago Center
08:51AM 41.8092 -86.6003 81° East 423 487 26,300 2,160 Climbing Chicago Center
08:52AM 41.8303 -86.4028 82° East 444 511 28,600 1,920 Climbing Chicago Center
08:53AM 41.8492 -86.2350 81° East 457 526 30,300 1,620 Climbing Chicago Center
08:55AM 41.8669 -86.0603 82° East 469 540 32,000 1,680 Climbing Chicago Center
08:56AM 41.8853 -85.8872 82° East 471 542 33,800 1,560 Climbing Chicago Center
08:57AM 41.9022 -85.7128 83° East 474 545 35,300 1,500 Climbing Chicago Center
08:58AM 41.9250 -85.4994 82° East 482 555 37,000 1,500 Climbing Chicago Center
08:59AM 41.9417 -85.3244 83° East 480 552 38,500 960 Climbing Chicago Center
09:00AM 41.9506 -85.1525 86° East 472 543 39,000 240 Climbing Chicago Center
09:01AM 41.9503 -84.9781 90° East 473 544 39,000  Level Chicago Center
09:02AM 41.9489 -84.8036 91° East 469 540 39,000  Level Chicago Center
09:03AM 41.9489 -84.6289 90° East 471 542 39,000  Level Chicago Center
09:04AM 41.9733 -84.4225 81° East 466 536 39,000  Level Chicago Center
09:05AM 41.9931 -84.2514 81° East 467 537 39,000  Level Chicago Center
09:06AM 42.0150 -84.0756 80° East 473 544 39,000  Level Chicago Center
09:07AM 42.0361 -83.9008 81° East 475 547 39,000  Level Chicago Center
09:08AM 42.0539 -83.7292 82° East 470 541 39,000  Level Chicago Center
09:09AM 42.0800 -83.4731 82° East 469 540 39,000  Level Cleveland Center
09:10AM 42.0964 -83.3144 82° East 469 540 39,000  Level Cleveland Center
09:11AM 42.1175 -83.1164 82° East 474 545 39,000  Level Cleveland Center
09:12AM 42.1381 -82.9381 81° East 479 551 39,000  Level Cleveland Center
09:13AM 42.1578 -82.7792 80° East 479 551 39,000  Level Cleveland Center
09:14AM 42.1736 -82.6003 83° East 479 551 39,000  Level Cleveland Center
09:15AM 42.1933 -82.4244 81° East 479 551 39,000  Level Cleveland Center
09:16AM 42.2125 -82.2456 82° East 479 551 39,000  Level Cleveland Center
09:17AM 42.2342 -82.0497 81° East 479 551 39,000  Level Cleveland Center
09:18AM 42.2508 -81.8706 83° East 485 558 39,000  Level Cleveland Center
09:19AM 42.2672 -81.6942 83° East 480 552 39,000  Level Cleveland Center
09:20AM 42.2856 -81.5122 82° East 480 552 39,000  Level Cleveland Center
09:21AM 42.3014 -81.3383 83° East 475 547 39,000  Level Cleveland Center
09:22AM 42.3169 -81.1561 83° East 475 547 39,000  Level Cleveland Center
09:23AM 42.3322 -81.0017 82° East 475 547 39,000  Level Cleveland Center
09:24AM 42.3475 -80.8219 83° East 475 547 39,000  Level Cleveland Center
09:25AM 42.3644 -80.6450 83° East 480 552 39,000  Level Cleveland Center
09:26AM 42.3789 -80.4681 84° East 480 552 39,000  Level Cleveland Center
09:27AM 42.3931 -80.2853 84° East 480 552 39,000  Level Cleveland Center
09:28AM 42.4092 -80.0883 84° East 480 552 39,000  Level Cleveland Center
09:29AM 42.4250 -79.9025 83° East 480 552 39,000  Level Cleveland Center
09:30AM 42.4383 -79.7222 84° East 480 552 39,000  Level Cleveland Center
09:31AM 42.4514 -79.5364 84° East 480 552 39,000  Level Cleveland Center
09:32AM 42.4683 -79.3475 83° East 485 558 39,000  Level Cleveland Center
09:33AM 42.4828 -79.1642 84° East 485 558 39,000  Level Cleveland Center
09:34AM 42.4950 -78.9808 85° East 497 572 39,000  Level Cleveland Center
09:35AM 42.5089 -78.7919 84° East 497 572 39,000  Level Cleveland Center
09:36AM 42.5203 -78.6056 85° East 497 572 39,000  Level Cleveland Center
09:37AM 42.5336 -78.4164 84° East 497 572 39,000  Level Cleveland Center
09:38AM 42.5467 -78.2300 85° East 497 572 39,000  Level Cleveland Center
09:39AM 42.5592 -78.0378 85° East 502 578 39,000  Level Cleveland Center
09:40AM 42.5697 -77.8539 85° East 497 572 39,000  Level Cleveland Center
09:41AM 42.5822 -77.6814 84° East 497 572 39,000  Level Cleveland Center
09:42AM 42.5919 -77.4975 86° East 497 572 39,000  Level Cleveland Center
09:44AM 42.6097 -77.1833 85° East 515 593 39,000  Level Boston Center
09:45AM 42.6181 -77.0342 86° East 510 587 39,000  Level Boston Center
09:46AM 42.6275 -76.8458 86° East 505 581 39,000  Level Boston Center
09:47AM 42.6403 -76.6178 86° East 500 575 39,000  Level Boston Center
09:48AM 42.6494 -76.4264 86° East 495 570 39,000  Level Boston Center
09:49AM 42.6567 -76.2717 86° East 500 575 39,000  Level Boston Center
09:50AM 42.6678 -76.0606 86° East 500 575 39,000  Level Boston Center
09:51AM 42.6758 -75.8689 87° East 500 575 39,000  Level Boston Center
09:52AM 42.6839 -75.6714 87° East 507 583 39,000 -180 Level Boston Center
09:53AM 42.6914 -75.4742 87° East 512 589 38,700 -600 Descending Boston Center
09:54AM 42.6964 -75.2794 88° East 512 589 37,800 -900 Descending Boston Center
09:55AM 42.6864 -75.0867 94° East 512 589 37,000 -420 Descending Boston Center
09:56AM 42.6803 -74.9000 92° East 512 589 37,000  Level Boston Center
09:57AM 42.6736 -74.7133 93° East 500 575 37,000  Level Boston Center
09:58AM 42.6667 -74.5267 93° East 500 575 37,000  Level Boston Center
09:59AM 42.6575 -74.3372 94° East 500 575 37,000  Level Boston Center
10:00AM 42.6500 -74.1508 93° East 500 575 37,000  Level Boston Center
10:01AM 42.6422 -73.9669 93° East 495 570 37,000 -120 Level Boston Center
10:02AM 42.6322 -73.7750 94° East 500 575 36,800 -840 Descending Boston Center
10:03AM 42.6300 -73.5914 91° East 500 575 35,400 -1,800 Descending Boston Center
10:04AM 42.6194 -73.3994 94° East 500 575 33,300 -1,500 Descending Boston Center
10:05AM 42.6103 -73.2075 94° East 500 575 32,400 -960 Descending Boston Center
10:06AM 42.5992 -72.9872 94° East 527 606 31,400 -1,500 Descending Boston Center
10:07AM 42.5894 -72.8011 94° East 522 601 29,500 -2,220 Descending Boston Center
10:08AM 42.5775 -72.6178 95° East 503 579 27,000 -2,460 Descending Boston Center
10:09AM 42.5692 -72.4344 93° East 485 558 24,600 -2,040 Descending Boston Center
10:10AM 42.5608 -72.3019 95° East 470 541 23,000 -2,400 Descending Boston Center
10:11AM 42.5500 -72.1131 94° East 444 511 19,900 -2,580 Descending Boston Center
10:12AM 42.5369 -71.9556 96° East 421 484 17,900 -2,040 Descending Boston Center
10:13AM 42.5217 -71.8033 98° East 416 479 15,900 -2,100 Descending Boston Center
10:14AM 42.5103 -71.6544 96° East 397 457 13,700 -2,280 Descending Boston Center
10:15AM 42.5000 -71.5500 98° East 380 437 12,000 -1,860 Descending KA90
10:16AM 42.4833 -71.4167 100° East 348 400 10,600 -1,320 Descending KA90
10:17AM 42.4833 -71.3000 90° East 309 356 9,500 -1,260 Descending KA90
10:18AM 42.4667 -71.1833 101° East 299 344 8,100 -1,140 Descending KA90
10:19AM 42.4500 -71.0833 103° East 277 319 7,300 -600 Descending KA90
10:20AM 42.4167 -71.0167 124° Southeast 252 290 7,000 -180 Descending KA90
10:21AM 42.3667 -70.9667 144° Southeast 253 291 7,000 -300 Level KA90
10:22AM 42.3000 -70.9333 160° South 244 281 6,500 -840 Descending KA90
10:22AM 42.2333 -70.9667 200° South 247 284 5,500 -1,080 Descending KA90
10:24AM 42.1667 -71.0000 200° South 242 278 4,400 -1,080 Descending KA90
10:24AM 42.1833 -71.0500 294° West 215 247 3,400 -840 Descending KA90
10:25AM 42.2167 -71.0667 340° North 168 193 2,900 -720 Descending KA90
10:26AM 42.2667 -71.0500 14° North 157 181 2,000 -900 Descending KA90
10:27AM 42.3000 -71.0333 20° North 155 178 1,100 -840 Descending KA90
10:28AM 42.3333 -71.0167 20° North 133 153 500 -720 Descending KA90
10:30AM 42.3500 -71.0000 North  Level FlightAware Approximate